createdAt,value
2022-11-24T00:01:30.765Z,59.47
2022-11-24T00:03:59.514Z,63.33
2022-11-24T00:06:26.967Z,62.63
2022-11-24T00:08:54.492Z,65.20
2022-11-24T00:11:23.102Z,67.57
2022-11-24T00:13:50.197Z,63.20
2022-11-24T00:16:18.598Z,64.93
2022-11-24T00:18:47.810Z,68.23
2022-11-24T00:21:15.446Z,66.07
2022-11-24T00:23:42.596Z,68.10
2022-11-24T00:26:11.451Z,68.10
2022-11-24T00:28:40.387Z,65.73
2022-11-24T00:31:17.531Z,64.13
2022-11-24T00:33:45.229Z,69.03
2022-11-24T00:36:12.416Z,68.00
2022-11-24T00:38:39.340Z,68.80
2022-11-24T00:41:06.449Z,68.40
2022-11-24T00:43:33.293Z,66.43
2022-11-24T00:46:00.895Z,65.03
2022-11-24T00:48:28.153Z,68.03
2022-11-24T00:50:59.098Z,72.57
2022-11-24T00:53:26.512Z,68.13
2022-11-24T00:55:54.162Z,68.73
2022-11-24T00:58:21.566Z,69.20
2022-11-24T01:00:48.708Z,71.17
2022-11-24T01:03:17.034Z,67.60
2022-11-24T01:05:43.866Z,70.97
2022-11-24T01:08:10.904Z,69.90
2022-11-24T01:10:37.772Z,69.47
2022-11-24T01:13:05.048Z,69.37
2022-11-24T01:15:34.368Z,73.23
2022-11-24T01:18:01.028Z,71.53
2022-11-24T01:20:28.394Z,69.90
2022-11-24T01:22:55.042Z,71.67
2022-11-24T01:25:21.745Z,73.43
2022-11-24T01:27:48.382Z,71.03
2022-11-24T01:30:15.102Z,74.80
2022-11-24T01:32:41.821Z,69.27
2022-11-24T01:35:09.392Z,68.57
2022-11-24T01:37:37.066Z,69.90
2022-11-24T01:40:05.105Z,66.07
2022-11-24T01:42:42.610Z,66.47
2022-11-24T01:45:40.032Z,69.77
2022-11-24T01:48:13.117Z,67.43
2022-11-24T01:50:41.439Z,71.07
2022-11-24T01:53:09.408Z,67.30
2022-11-24T01:55:43.759Z,70.63
2022-11-24T01:58:22.654Z,68.00
2022-11-24T02:01:00.515Z,70.73
2022-11-24T02:03:30.818Z,68.73
2022-11-24T02:06:00.665Z,62.47
2022-11-24T02:08:34.857Z,69.37
2022-11-24T02:11:03.730Z,65.40
2022-11-24T02:13:30.860Z,64.93
2022-11-24T02:15:57.835Z,68.57
2022-11-24T02:18:24.535Z,66.13
2022-11-24T02:20:51.326Z,67.57
2022-11-24T02:23:24.181Z,67.67
2022-11-24T02:26:01.280Z,67.77
2022-11-24T02:28:32.377Z,63.93
2022-11-24T02:31:00.444Z,69.80
2022-11-24T02:33:27.489Z,65.57
2022-11-24T02:35:54.377Z,64.93
2022-11-24T02:38:29.998Z,65.17
2022-11-24T02:40:57.225Z,64.30
2022-11-24T02:43:25.083Z,65.77
2022-11-24T02:45:52.450Z,64.30
2022-11-24T02:48:19.097Z,62.07
2022-11-24T02:50:45.756Z,60.13
2022-11-24T02:53:12.465Z,66.10
2022-11-24T02:55:39.137Z,61.30
2022-11-24T02:58:05.840Z,65.83
2022-11-24T03:00:32.658Z,64.50
2022-11-24T03:03:00.052Z,62.37
2022-11-24T03:05:26.744Z,61.30
2022-11-24T03:07:56.241Z,61.83
2022-11-24T03:10:23.742Z,58.53
2022-11-24T03:12:50.519Z,59.47
2022-11-24T03:15:17.468Z,66.60
2022-11-24T03:17:44.558Z,65.27
2022-11-24T03:20:13.354Z,61.57
2022-11-24T03:22:40.892Z,60.27
2022-11-24T03:25:08.043Z,63.30
2022-11-24T03:27:37.881Z,61.27
2022-11-24T03:30:05.347Z,59.03
2022-11-24T03:32:32.088Z,59.67
2022-11-24T03:34:58.753Z,59.63
2022-11-24T03:37:26.094Z,56.10
2022-11-24T03:39:52.784Z,58.30
2022-11-24T03:42:19.402Z,58.67
2022-11-24T03:44:46.124Z,59.43
2022-11-24T03:47:12.854Z,59.67
2022-11-24T03:49:40.754Z,61.13
2022-11-24T03:52:08.450Z,56.83
2022-11-24T03:54:36.051Z,55.43
2022-11-24T03:57:02.986Z,57.47
2022-11-24T03:59:29.700Z,55.90
2022-11-24T04:01:56.719Z,56.27
2022-11-24T04:04:23.448Z,54.37
2022-11-24T04:06:50.159Z,54.67
2022-11-24T04:09:16.914Z,54.33
2022-11-24T04:12:02.417Z,56.77
2022-11-24T04:14:29.219Z,54.40
2022-11-24T04:16:55.889Z,55.57
2022-11-24T04:19:22.589Z,55.17
2022-11-24T04:21:49.241Z,55.97
2022-11-24T04:24:15.943Z,52.57
2022-11-24T04:26:42.591Z,53.50
2022-11-24T04:29:10.435Z,51.80
2022-11-24T04:31:37.111Z,51.70
2022-11-24T04:34:03.985Z,55.57
2022-11-24T04:36:30.631Z,53.93
2022-11-24T04:39:23.589Z,52.40
2022-11-24T04:41:44.088Z,53.53
2022-11-24T04:44:11.454Z,52.37
2022-11-24T04:46:38.244Z,51.10
2022-11-24T04:49:05.190Z,54.50
2022-11-24T04:51:31.837Z,52.53
2022-11-24T04:53:58.755Z,54.30
2022-11-24T04:56:25.434Z,52.53
2022-11-24T04:58:52.162Z,50.43
2022-11-24T05:01:19.527Z,51.07
2022-11-24T05:03:46.248Z,53.03
2022-11-24T05:06:12.967Z,52.87
2022-11-24T05:08:39.661Z,49.47
2022-11-24T05:11:07.527Z,51.33
2022-11-24T05:13:34.313Z,50.37
2022-11-24T05:16:01.015Z,53.33
2022-11-24T05:18:28.604Z,49.60
2022-11-24T05:20:55.245Z,48.17
2022-11-24T05:23:21.931Z,50.20
2022-11-24T05:25:48.668Z,50.23
2022-11-24T05:28:15.647Z,51.73
2022-11-24T05:30:42.341Z,50.53
2022-11-24T05:33:12.557Z,51.97
2022-11-24T05:35:39.863Z,51.17
2022-11-24T05:38:06.571Z,48.90
2022-11-24T05:40:33.203Z,49.30
2022-11-24T05:42:59.851Z,46.70
2022-11-24T05:45:26.597Z,45.43
2022-11-24T05:47:53.467Z,48.10
2022-11-24T05:50:21.930Z,46.23
2022-11-24T05:52:49.609Z,46.80
2022-11-24T05:55:18.697Z,48.13
2022-11-24T05:57:45.437Z,47.77
2022-11-24T06:00:13.109Z,44.07
2022-11-24T06:02:40.204Z,45.00
2022-11-24T06:05:07.579Z,44.67
2022-11-24T06:07:34.333Z,45.70
2022-11-24T06:10:01.757Z,46.30
2022-11-24T06:12:28.416Z,45.63
2022-11-24T06:14:55.077Z,47.73
2022-11-24T06:17:21.733Z,42.63
2022-11-24T06:19:49.462Z,47.20
2022-11-24T06:22:16.912Z,47.53
2022-11-24T06:24:43.560Z,47.53
2022-11-24T06:27:11.597Z,44.47
2022-11-24T06:29:38.263Z,44.47
2022-11-24T06:32:05.721Z,40.53
2022-11-24T06:34:32.821Z,42.70
2022-11-24T06:36:59.717Z,43.30
2022-11-24T06:39:26.359Z,42.33
2022-11-24T06:41:53.345Z,41.40
2022-11-24T06:44:21.859Z,40.90
2022-11-24T06:46:48.541Z,40.93
2022-11-24T06:49:15.388Z,39.47
2022-11-24T06:51:42.310Z,37.30
2022-11-24T06:54:13.679Z,36.47
2022-11-24T06:56:40.585Z,40.00
2022-11-24T06:59:07.983Z,39.67
2022-11-24T07:01:35.375Z,41.33
2022-11-24T07:04:02.275Z,38.73
2022-11-24T07:06:28.979Z,39.23
2022-11-24T07:08:55.628Z,41.93
2022-11-24T07:11:23.914Z,41.00
2022-11-24T07:13:55.166Z,44.23
2022-11-24T07:16:26.881Z,38.63
2022-11-24T07:18:54.768Z,39.90
2022-11-24T07:21:23.110Z,40.00
2022-11-24T07:23:50.353Z,38.83
2022-11-24T07:26:17.528Z,40.07
2022-11-24T07:28:44.369Z,37.03
2022-11-24T07:31:12.918Z,39.50
2022-11-24T07:33:40.467Z,39.53
2022-11-24T07:36:09.812Z,41.70
2022-11-24T07:38:37.071Z,39.03
2022-11-24T07:41:05.808Z,40.33
2022-11-24T07:43:34.614Z,39.57
2022-11-24T07:46:01.747Z,37.60
2022-11-24T07:48:29.305Z,39.10
2022-11-24T07:50:58.959Z,40.03
2022-11-24T07:53:26.309Z,39.73
2022-11-24T07:55:54.427Z,39.17
2022-11-24T07:58:21.341Z,37.13
2022-11-24T08:00:48.143Z,41.33
2022-11-24T08:03:15.126Z,37.97
2022-11-24T08:06:07.752Z,38.33
2022-11-24T08:08:32.594Z,37.40
2022-11-24T08:11:03.202Z,37.43
2022-11-24T08:13:29.847Z,36.63
2022-11-24T08:15:56.655Z,37.00
2022-11-24T08:18:24.078Z,37.43
2022-11-24T08:20:50.827Z,35.03
2022-11-24T08:23:17.534Z,34.57
2022-11-24T08:25:45.217Z,34.80
2022-11-24T08:28:11.854Z,35.87
2022-11-24T08:30:38.581Z,34.57
2022-11-24T08:33:05.277Z,34.13
2022-11-24T08:35:36.336Z,31.57
2022-11-24T08:38:04.885Z,33.17
2022-11-24T08:40:32.339Z,34.97
2022-11-24T08:43:00.001Z,34.17
2022-11-24T08:45:30.551Z,32.43
2022-11-24T08:47:57.564Z,32.50
2022-11-24T08:50:24.834Z,33.97
2022-11-24T08:52:52.241Z,36.07
2022-11-24T08:55:19.011Z,35.87
2022-11-24T08:57:45.663Z,36.87
2022-11-24T09:00:21.298Z,36.07
2022-11-24T09:02:57.782Z,35.13
2022-11-24T09:05:50.557Z,35.93
2022-11-24T09:08:11.348Z,35.10
2022-11-24T09:10:38.022Z,36.27
2022-11-24T09:13:04.693Z,36.87
2022-11-24T09:15:32.014Z,35.00
2022-11-24T09:17:58.720Z,35.37
2022-11-24T09:20:25.356Z,37.50
2022-11-24T09:22:52.185Z,35.47
2022-11-24T09:25:19.178Z,36.00
2022-11-24T09:27:45.939Z,37.10
2022-11-24T09:30:13.576Z,38.03
2022-11-24T09:32:41.325Z,33.80
2022-11-24T09:35:08.552Z,34.67
2022-11-24T09:37:35.406Z,33.93
2022-11-24T09:40:02.181Z,32.33
2022-11-24T09:42:40.654Z,34.13
2022-11-24T09:45:35.387Z,33.97
2022-11-24T09:48:12.229Z,34.33
2022-11-24T09:50:38.978Z,34.70
2022-11-24T09:53:12.408Z,38.50
2022-11-24T09:55:43.666Z,36.50
2022-11-24T09:58:28.431Z,37.07
2022-11-24T10:00:56.618Z,34.13
2022-11-24T10:03:29.343Z,34.20
2022-11-24T10:05:56.105Z,36.30
2022-11-24T10:08:33.570Z,35.60
2022-11-24T10:11:02.511Z,36.30
2022-11-24T10:13:46.007Z,35.70
2022-11-24T10:16:26.751Z,33.57
2022-11-24T10:19:05.021Z,33.17
2022-11-24T10:21:51.286Z,31.67
2022-11-24T10:24:36.632Z,35.13
2022-11-24T10:27:10.587Z,35.17
2022-11-24T10:29:40.425Z,34.03
2022-11-24T10:32:14.938Z,35.20
2022-11-24T10:34:44.623Z,38.40
2022-11-24T10:37:18.034Z,34.50
2022-11-24T10:39:57.101Z,34.40
2022-11-24T10:42:29.004Z,37.60
2022-11-24T10:45:04.077Z,35.13
2022-11-24T10:47:31.143Z,34.93
2022-11-24T10:50:02.876Z,36.00
2022-11-24T10:52:34.227Z,33.57
2022-11-24T10:55:02.606Z,34.33
2022-11-24T10:57:32.107Z,36.93
2022-11-24T10:59:59.334Z,33.33
2022-11-24T11:02:37.459Z,34.80
2022-11-24T11:05:41.366Z,32.80
2022-11-24T11:08:19.160Z,35.10
2022-11-24T11:10:47.442Z,34.40
2022-11-24T11:13:25.380Z,33.97
2022-11-24T11:15:52.479Z,32.63
2022-11-24T11:18:20.902Z,33.30
2022-11-24T11:20:53.418Z,31.93
2022-11-24T11:23:25.547Z,32.43
2022-11-24T11:26:16.112Z,33.23
2022-11-24T11:28:56.386Z,32.10
2022-11-24T11:31:24.597Z,33.63
2022-11-24T11:34:05.479Z,35.10
2022-11-24T11:36:35.563Z,34.50
2022-11-24T11:39:03.825Z,34.03
2022-11-24T11:41:35.631Z,34.57
2022-11-24T11:44:13.478Z,32.53
2022-11-24T11:46:41.344Z,33.10
2022-11-24T11:49:12.063Z,31.37
2022-11-24T11:51:56.007Z,34.17
2022-11-24T11:54:34.731Z,34.17
2022-11-24T11:57:10.056Z,33.43
2022-11-24T11:59:58.377Z,33.57
2022-11-24T12:02:53.387Z,33.97
2022-11-24T12:05:29.710Z,33.77
2022-11-24T12:08:10.804Z,34.67
2022-11-24T12:10:45.762Z,34.90
2022-11-24T12:13:41.365Z,39.13
2022-11-24T12:16:17.607Z,34.50
2022-11-24T12:18:59.399Z,32.30
2022-11-24T12:21:33.944Z,32.47
2022-11-24T12:24:10.956Z,31.27
2022-11-24T12:26:44.874Z,30.80
2022-11-24T12:29:34.977Z,33.43
2022-11-24T12:32:11.378Z,33.50
2022-11-24T12:34:50.644Z,31.93
2022-11-24T12:37:36.179Z,32.87
2022-11-24T12:40:12.668Z,33.73
2022-11-24T12:42:48.895Z,33.83
2022-11-24T12:45:17.982Z,31.90
2022-11-24T12:47:58.218Z,30.37
2022-11-24T12:50:27.673Z,31.23
2022-11-24T12:53:00.098Z,31.93
2022-11-24T12:55:29.053Z,32.77
2022-11-24T12:58:07.693Z,33.03
2022-11-24T13:00:46.744Z,32.37
2022-11-24T13:03:29.444Z,32.40
2022-11-24T13:06:00.942Z,32.33
2022-11-24T13:08:28.765Z,32.40
2022-11-24T13:11:25.895Z,33.77
2022-11-24T13:13:58.373Z,30.80
2022-11-24T13:16:59.267Z,31.37
2022-11-24T13:19:17.040Z,34.60
2022-11-24T13:21:50.958Z,32.40
2022-11-24T13:24:26.418Z,31.23
2022-11-24T13:27:13.519Z,30.67
2022-11-24T13:29:41.410Z,32.17
2022-11-24T13:32:49.814Z,32.77
2022-11-24T13:35:16.696Z,40.77
2022-11-24T13:37:50.907Z,33.70
2022-11-24T13:40:54.185Z,32.27
2022-11-24T13:43:28.328Z,32.37
2022-11-24T13:45:55.197Z,32.80
2022-11-24T13:49:01.421Z,33.53
2022-11-24T13:51:28.129Z,33.40
2022-11-24T13:53:57.445Z,36.07
2022-11-24T13:56:28.406Z,35.77
2022-11-24T13:58:57.985Z,34.20
2022-11-24T14:01:27.603Z,33.97
2022-11-24T14:04:32.835Z,33.67
2022-11-24T14:07:07.859Z,33.80
2022-11-24T14:09:40.717Z,33.77
2022-11-24T14:12:13.601Z,33.77
2022-11-24T14:14:42.287Z,34.80
2022-11-24T14:17:16.195Z,35.33
2022-11-24T14:19:44.350Z,34.07
2022-11-24T14:22:20.322Z,35.90
2022-11-24T14:24:52.905Z,35.43
2022-11-24T14:27:25.918Z,40.83
2022-11-24T14:29:58.317Z,34.67
2022-11-24T14:32:25.150Z,34.23
2022-11-24T14:34:53.359Z,34.73
2022-11-24T14:37:20.386Z,36.30
2022-11-24T14:39:47.333Z,34.27
2022-11-24T14:42:19.836Z,36.37
2022-11-24T14:44:50.381Z,35.50
2022-11-24T14:47:27.116Z,36.13
2022-11-24T14:49:59.457Z,36.43
2022-11-24T14:52:26.464Z,36.27
2022-11-24T14:54:56.137Z,35.67
2022-11-24T14:57:26.391Z,35.17
2022-11-24T15:00:15.024Z,37.00
2022-11-24T15:02:45.540Z,37.50
2022-11-24T15:05:12.484Z,39.03
2022-11-24T15:07:42.219Z,39.57
2022-11-24T15:10:20.656Z,37.17
2022-11-24T15:12:51.876Z,39.77
2022-11-24T15:15:20.176Z,39.00
2022-11-24T15:17:50.514Z,37.80
2022-11-24T15:20:22.358Z,40.60
2022-11-24T15:22:51.708Z,37.37
2022-11-24T15:25:27.366Z,36.60
2022-11-24T15:27:54.278Z,38.07
2022-11-24T15:30:21.045Z,35.37
2022-11-24T15:32:55.929Z,36.83
2022-11-24T15:35:23.344Z,36.93
2022-11-24T15:37:50.328Z,40.20
2022-11-24T15:40:17.492Z,37.73
2022-11-24T15:42:49.512Z,39.93
2022-11-24T15:45:16.370Z,39.57
2022-11-24T15:47:43.201Z,39.77
2022-11-24T15:50:12.226Z,41.63
2022-11-24T15:52:39.303Z,38.57
2022-11-24T15:55:09.479Z,37.67
2022-11-24T15:57:36.334Z,39.73
2022-11-24T16:00:03.794Z,45.20
2022-11-24T16:02:30.600Z,42.83
2022-11-24T16:04:57.317Z,39.97
2022-11-24T16:07:24.829Z,37.93
2022-11-24T16:09:51.526Z,38.63
2022-11-24T16:12:19.002Z,39.90
2022-11-24T16:14:45.642Z,39.03
2022-11-24T16:17:12.325Z,39.90
2022-11-24T16:19:42.004Z,38.67
2022-11-24T16:22:08.982Z,38.27
2022-11-24T16:24:36.704Z,38.40
2022-11-24T16:27:03.711Z,38.37
2022-11-24T16:29:35.326Z,38.90
2022-11-24T16:32:05.522Z,40.33
2022-11-24T16:34:32.493Z,40.50
2022-11-24T16:36:59.547Z,40.90
2022-11-24T16:39:26.243Z,40.13
2022-11-24T16:41:53.790Z,41.07
2022-11-24T16:44:20.517Z,39.37
2022-11-24T16:46:47.385Z,41.03
2022-11-24T16:49:14.202Z,40.03
2022-11-24T16:51:41.917Z,38.80
2022-11-24T16:54:10.675Z,38.33
2022-11-24T16:56:37.542Z,37.27
2022-11-24T16:59:05.346Z,40.13
2022-11-24T17:01:33.062Z,37.73
2022-11-24T17:04:00.151Z,37.00
2022-11-24T17:06:26.840Z,37.67
2022-11-24T17:08:55.358Z,38.33
2022-11-24T17:11:24.831Z,37.37
2022-11-24T17:13:51.975Z,37.27
2022-11-24T17:16:21.642Z,37.57
2022-11-24T17:18:48.682Z,36.00
2022-11-24T17:21:17.133Z,37.80
2022-11-24T17:23:44.538Z,36.97
2022-11-24T17:26:13.066Z,38.90
2022-11-24T17:28:40.370Z,37.60
2022-11-24T17:31:07.755Z,38.93
2022-11-24T17:33:35.558Z,39.13
2022-11-24T17:36:03.817Z,38.40
2022-11-24T17:38:30.593Z,37.47
2022-11-24T17:40:57.794Z,40.00
2022-11-24T17:43:24.586Z,38.33
2022-11-24T17:45:53.707Z,38.00
2022-11-24T17:48:20.501Z,35.87
2022-11-24T17:50:48.391Z,37.07
2022-11-24T17:53:15.117Z,39.17
2022-11-24T17:55:41.837Z,39.00
2022-11-24T17:58:08.491Z,39.70
2022-11-24T18:00:35.192Z,38.77
2022-11-24T18:03:02.038Z,38.63
2022-11-24T18:05:28.691Z,38.50
2022-11-24T18:07:56.199Z,38.57
2022-11-24T18:10:23.089Z,40.20
2022-11-24T18:12:49.767Z,39.13
2022-11-24T18:15:16.610Z,40.77
2022-11-24T18:17:43.293Z,41.13
2022-11-24T18:20:10.618Z,38.73
2022-11-24T18:23:03.955Z,40.63
2022-11-24T18:25:25.054Z,39.57
2022-11-24T18:27:52.133Z,38.93
2022-11-24T18:30:19.114Z,37.70
2022-11-24T18:32:45.764Z,40.37
2022-11-24T18:35:12.510Z,39.90
2022-11-24T18:37:43.483Z,40.47
2022-11-24T18:40:10.735Z,37.57
2022-11-24T18:42:38.240Z,37.77
2022-11-24T18:45:06.796Z,37.97
2022-11-24T18:47:34.035Z,37.50
2022-11-24T18:50:00.981Z,39.03
2022-11-24T18:52:27.742Z,39.17
2022-11-24T18:54:54.491Z,39.83
2022-11-24T18:57:21.219Z,40.07
2022-11-24T18:59:48.873Z,39.37
2022-11-24T19:02:16.348Z,40.43
2022-11-24T19:04:43.067Z,37.30
2022-11-24T19:07:09.971Z,39.87
2022-11-24T19:09:37.204Z,40.70
2022-11-24T19:12:09.222Z,39.53
2022-11-24T19:14:37.428Z,42.37
2022-11-24T19:17:05.355Z,45.73
2022-11-24T19:19:33.618Z,40.83
2022-11-24T19:22:00.466Z,40.07
2022-11-24T19:24:27.411Z,41.63
2022-11-24T19:26:54.697Z,41.50
2022-11-24T19:29:21.391Z,39.90
2022-11-24T19:31:48.733Z,41.20
2022-11-24T19:34:16.933Z,40.17
2022-11-24T19:36:43.900Z,42.33
2022-11-24T19:39:13.916Z,39.83
2022-11-24T19:41:41.050Z,40.20
2022-11-24T19:44:09.111Z,39.93
2022-11-24T19:46:35.899Z,39.63
2022-11-24T19:49:03.974Z,40.77
2022-11-24T19:51:33.065Z,41.80
2022-11-24T19:54:01.219Z,40.83
2022-11-24T19:56:29.839Z,37.70
2022-11-24T19:58:57.178Z,41.50
2022-11-24T20:01:26.084Z,40.03
2022-11-24T20:03:55.613Z,40.00
2022-11-24T20:06:22.448Z,44.83
2022-11-24T20:08:49.873Z,43.50
2022-11-24T20:11:18.335Z,40.60
2022-11-24T20:13:45.901Z,43.13
2022-11-24T20:16:14.346Z,41.03
2022-11-24T20:18:45.642Z,43.33
2022-11-24T20:21:13.884Z,46.07
2022-11-24T20:23:41.153Z,44.40
2022-11-24T20:26:11.084Z,46.07
2022-11-24T20:28:38.041Z,47.63
2022-11-24T20:31:07.140Z,44.53
2022-11-24T20:33:36.406Z,46.33
2022-11-24T20:36:06.010Z,46.23
2022-11-24T20:38:33.812Z,44.57
2022-11-24T20:41:07.555Z,43.97
2022-11-24T20:43:37.199Z,45.00
2022-11-24T20:46:05.125Z,47.73
2022-11-24T20:48:33.033Z,44.33
2022-11-24T20:51:03.880Z,44.27
2022-11-24T20:53:30.632Z,47.43
2022-11-24T20:56:05.856Z,48.87
2022-11-24T20:58:33.908Z,48.03
2022-11-24T21:01:04.543Z,49.43
2022-11-24T21:03:31.569Z,44.80
2022-11-24T21:05:58.257Z,47.50
2022-11-24T21:08:24.986Z,47.60
2022-11-24T21:10:55.468Z,47.30
2022-11-24T21:13:22.645Z,45.13
2022-11-24T21:15:49.523Z,43.63
2022-11-24T21:18:17.507Z,45.10
2022-11-24T21:20:45.015Z,45.83
2022-11-24T21:23:12.444Z,45.80
2022-11-24T21:25:39.114Z,44.53
2022-11-24T21:28:07.093Z,45.10
2022-11-24T21:30:34.463Z,44.53
2022-11-24T21:33:01.904Z,47.60
2022-11-24T21:35:29.791Z,44.30
2022-11-24T21:37:56.432Z,40.33
2022-11-24T21:40:23.111Z,42.87
2022-11-24T21:42:49.829Z,42.53
2022-11-24T21:45:16.776Z,43.03
2022-11-24T21:47:45.873Z,44.53
2022-11-24T21:50:12.900Z,42.87
2022-11-24T21:52:40.224Z,42.50
2022-11-24T21:55:07.784Z,41.17
2022-11-24T21:57:34.555Z,40.10
2022-11-24T22:00:01.257Z,39.00
2022-11-24T22:02:28.064Z,39.87
2022-11-24T22:04:54.738Z,44.43
2022-11-24T22:07:21.696Z,41.23
2022-11-24T22:09:49.418Z,43.63
2022-11-24T22:12:16.279Z,45.13
2022-11-24T22:14:43.331Z,41.50
2022-11-24T22:17:10.303Z,43.30
2022-11-24T22:19:37.111Z,42.13
2022-11-24T22:22:03.805Z,43.60
2022-11-24T22:24:32.746Z,41.90
2022-11-24T22:27:02.173Z,41.77
2022-11-24T22:29:29.134Z,42.60
2022-11-24T22:31:56.905Z,42.37
2022-11-24T22:34:23.712Z,43.90
2022-11-24T22:36:50.423Z,44.07
2022-11-24T22:39:17.028Z,42.20
2022-11-24T22:41:43.682Z,45.67
2022-11-24T22:44:11.068Z,44.37
2022-11-24T22:46:37.851Z,42.50
2022-11-24T22:49:04.557Z,46.50
2022-11-24T22:51:33.006Z,43.97
2022-11-24T22:54:01.625Z,44.27
2022-11-24T22:56:31.353Z,42.80
2022-11-24T22:58:58.616Z,43.60
2022-11-24T23:01:27.529Z,43.17
2022-11-24T23:03:55.358Z,41.67
2022-11-24T23:06:23.662Z,40.67
2022-11-24T23:08:51.071Z,43.37
2022-11-24T23:11:19.372Z,45.23
2022-11-24T23:13:46.402Z,42.37
2022-11-24T23:16:15.169Z,44.50
2022-11-24T23:18:43.184Z,46.77
2022-11-24T23:21:12.473Z,43.87
2022-11-24T23:23:39.890Z,44.03
2022-11-24T23:26:08.743Z,44.70
2022-11-24T23:28:35.954Z,44.67
2022-11-24T23:31:03.577Z,47.97
2022-11-24T23:33:30.559Z,45.23
2022-11-24T23:36:01.720Z,47.57
2022-11-24T23:38:29.497Z,44.63
2022-11-24T23:40:56.349Z,44.90
2022-11-24T23:43:23.147Z,43.93
2022-11-24T23:45:49.948Z,42.87
2022-11-24T23:48:16.964Z,42.40
2022-11-24T23:50:43.658Z,45.83
2022-11-24T23:53:11.194Z,43.97
2022-11-24T23:55:37.847Z,45.17
2022-11-24T23:58:04.668Z,42.87
